Time;durP1;ratioP1;P1;durP2;ratioP2;P2;SDS_P1;SDS_P2;PMS_P1;PMS_P2;Temp;Humidity;BMP_temperature;BMP_pressure;BME280_temperature;BME280_humidity;BME280_pressure;Samples;Min_cycle;Max_cycle;Signal;HPM_P1;HPM_P2
2021/07/28 00:01:32;;;;;;;15.65;11.48;;;18.80;99.90;;;;;;5018774;28;20079;-76
2021/07/28 00:03:59;;;;;;;13.10;11.30;;;18.70;99.90;;;;;;5024533;28;20025;-76
2021/07/28 00:06:24;;;;;;;15.52;11.32;;;18.80;99.90;;;;;;5012142;28;20026;-76
2021/07/28 00:08:50;;;;;;;14.02;11.13;;;18.80;99.90;;;;;;5019685;28;20609;-76
2021/07/28 00:11:17;;;;;;;14.25;11.70;;;19.00;99.90;;;;;;5018551;28;20029;-76
2021/07/28 00:13:45;;;;;;;13.80;11.68;;;19.10;99.90;;;;;;5024110;28;20026;-76
2021/07/28 00:16:13;;;;;;;12.10;10.63;;;19.10;99.90;;;;;;5025136;28;20476;-76
2021/07/28 00:23:56;;;;;;;13.50;11.02;;;19.20;99.90;;;;;;5019816;28;20116;-77
2021/07/28 00:26:21;;;;;;;13.35;10.93;;;19.10;99.90;;;;;;5024074;28;20112;-76
2021/07/28 00:28:47;;;;;;;13.32;11.48;;;19.10;99.90;;;;;;5010733;28;20504;-77
2021/07/28 00:31:12;;;;;;;16.05;12.05;;;19.00;99.90;;;;;;5031219;28;20040;-77
2021/07/28 00:33:38;;;;;;;14.05;11.23;;;18.80;99.90;;;;;;5020692;28;20084;-78
2021/07/28 00:36:04;;;;;;;12.57;10.93;;;18.80;99.90;;;;;;5030195;28;20071;-77
2021/07/28 00:38:29;;;;;;;15.75;11.43;;;19.00;99.90;;;;;;5020321;28;20030;-78
2021/07/28 00:40:55;;;;;;;13.98;12.13;;;18.90;99.90;;;;;;5026102;28;20018;-79
2021/07/28 00:43:24;;;;;;;17.73;12.32;;;18.90;99.90;;;;;;5024495;28;20025;-79
2021/07/28 00:45:51;;;;;;;17.17;12.48;;;18.90;99.90;;;;;;5018315;28;20036;-77
2021/07/28 00:48:16;;;;;;;15.90;12.13;;;18.80;99.90;;;;;;5020091;28;20030;-77
2021/07/28 00:50:43;;;;;;;13.60;11.95;;;18.70;99.90;;;;;;5012966;28;20034;-77
2021/07/28 00:53:16;;;;;;;15.82;11.63;;;18.70;99.90;;;;;;5016344;28;20025;-77
2021/07/28 00:55:43;;;;;;;16.45;12.20;;;18.70;99.90;;;;;;5003811;28;20088;-78
2021/07/28 00:58:08;;;;;;;15.20;12.57;;;18.60;99.90;;;;;;5021143;28;20032;-77
2021/07/28 01:00:34;;;;;;;14.68;12.18;;;18.50;99.90;;;;;;5028936;28;20113;-77
2021/07/28 01:02:59;;;;;;;13.75;12.18;;;18.60;99.90;;;;;;5028609;28;20028;-77
2021/07/28 01:05:25;;;;;;;15.05;12.13;;;18.70;99.90;;;;;;5015553;28;20030;-76
2021/07/28 01:07:50;;;;;;;14.88;12.35;;;18.80;99.90;;;;;;5015501;28;20029;-77
2021/07/28 01:10:16;;;;;;;14.52;12.45;;;18.60;99.90;;;;;;5027136;28;20081;-76
2021/07/28 01:12:45;;;;;;;16.15;12.75;;;18.50;99.90;;;;;;5028174;28;20110;-76
2021/07/28 01:15:20;;;;;;;18.63;13.70;;;18.40;99.90;;;;;;5008931;28;20052;-76
2021/07/28 01:17:46;;;;;;;16.05;12.82;;;18.20;99.90;;;;;;5021675;28;20050;-76
2021/07/28 01:20:13;;;;;;;16.42;13.48;;;18.40;99.90;;;;;;5025805;28;20068;-76
2021/07/28 01:22:39;;;;;;;20.30;14.38;;;18.40;99.90;;;;;;5027090;28;20021;-76
2021/07/28 01:25:04;;;;;;;20.45;14.50;;;18.40;99.90;;;;;;5015049;28;20635;-76
2021/07/28 01:27:30;;;;;;;14.68;12.88;;;18.50;99.90;;;;;;5028430;28;20061;-77
2021/07/28 01:29:56;;;;;;;18.67;14.20;;;18.30;99.90;;;;;;5021636;28;20041;-75
2021/07/28 01:32:21;;;;;;;16.17;13.93;;;18.10;99.90;;;;;;5021449;28;20481;-75
2021/07/28 01:34:48;;;;;;;15.70;13.68;;;18.00;99.90;;;;;;5026802;28;20096;-76
2021/07/28 01:37:14;;;;;;;19.02;14.48;;;18.00;99.90;;;;;;5023848;28;20033;-76
2021/07/28 01:39:40;;;;;;;17.33;13.40;;;18.10;99.90;;;;;;5026770;28;20494;-75
2021/07/28 01:42:06;;;;;;;18.15;14.55;;;18.00;99.90;;;;;;5010273;28;20540;-76
2021/07/28 01:44:32;;;;;;;21.38;15.20;;;18.10;99.90;;;;;;5028491;28;20033;-76
2021/07/28 01:46:58;;;;;;;15.68;13.35;;;18.10;99.90;;;;;;5028448;28;20028;-76
2021/07/28 01:49:23;;;;;;;15.35;13.32;;;18.30;99.90;;;;;;5020875;28;20041;-77
2021/07/28 01:51:49;;;;;;;16.75;13.48;;;18.50;99.90;;;;;;5016157;28;20519;-77
2021/07/28 01:54:15;;;;;;;16.73;13.55;;;18.50;99.90;;;;;;5024984;28;20036;-76
2021/07/28 01:56:43;;;;;;;19.60;14.63;;;18.40;99.90;;;;;;5027508;28;20026;-76
2021/07/28 01:59:11;;;;;;;24.58;15.27;;;18.10;99.90;;;;;;5022796;28;20482;-76
2021/07/28 02:01:36;;;;;;;20.90;15.82;;;17.70;99.90;;;;;;5017698;28;20399;-76
2021/07/28 02:04:02;;;;;;;19.42;15.15;;;17.60;99.90;;;;;;5022788;28;20029;-75
2021/07/28 02:06:27;;;;;;;20.05;15.77;;;17.60;99.90;;;;;;5035962;28;20029;-74
2021/07/28 02:08:53;;;;;;;19.85;16.30;;;17.60;99.90;;;;;;5027754;28;20120;-75
2021/07/28 02:11:18;;;;;;;19.08;15.43;;;17.60;99.90;;;;;;5020859;28;20026;-75
2021/07/28 02:13:44;;;;;;;20.02;15.75;;;17.60;99.90;;;;;;5025956;28;20041;-74
2021/07/28 02:16:09;;;;;;;19.13;16.30;;;17.80;99.90;;;;;;5027394;28;20041;-76
2021/07/28 02:18:35;;;;;;;21.02;15.90;;;17.90;99.90;;;;;;5020678;28;20525;-75
2021/07/28 02:21:01;;;;;;;19.73;15.73;;;17.90;99.90;;;;;;5020355;28;20079;-75
2021/07/28 02:23:27;;;;;;;20.10;16.13;;;17.90;99.90;;;;;;5026231;28;20058;-76
2021/07/28 02:25:53;;;;;;;22.50;15.95;;;17.90;99.90;;;;;;5026965;28;20044;-77
2021/07/28 02:28:19;;;;;;;22.10;16.92;;;18.00;99.90;;;;;;5021390;28;20101;-77
2021/07/28 02:30:44;;;;;;;22.27;16.40;;;17.90;99.90;;;;;;5020219;28;20033;-77
2021/07/28 02:33:10;;;;;;;20.92;16.65;;;17.80;99.90;;;;;;5032398;28;20034;-77
2021/07/28 02:35:37;;;;;;;21.92;17.42;;;17.70;99.90;;;;;;5018949;28;20369;-76
2021/07/28 02:38:02;;;;;;;21.35;17.08;;;17.60;99.90;;;;;;5026266;28;20026;-77
2021/07/28 02:40:28;;;;;;;22.80;16.95;;;17.80;99.90;;;;;;5026851;28;20498;-77
2021/07/28 02:42:53;;;;;;;21.42;16.40;;;17.80;99.90;;;;;;5021052;28;20108;-76
2021/07/28 02:45:19;;;;;;;21.83;16.63;;;17.90;99.90;;;;;;5019966;28;20022;-77
2021/07/28 02:47:44;;;;;;;20.00;15.80;;;18.10;99.90;;;;;;5042397;28;20385;-76
2021/07/28 02:50:11;;;;;;;20.35;16.65;;;18.20;99.90;;;;;;5019805;28;20034;-77
2021/07/28 02:52:37;;;;;;;25.45;17.60;;;17.90;99.90;;;;;;5020176;28;20452;-76
2021/07/28 02:55:06;;;;;;;23.58;17.20;;;17.70;99.90;;;;;;5019717;28;20085;-76
2021/07/28 02:57:36;;;;;;;22.85;17.58;;;17.70;99.90;;;;;;5024927;28;20026;-77
2021/07/28 03:00:02;;;;;;;22.73;17.42;;;17.80;99.90;;;;;;5026523;28;20026;-76
2021/07/28 03:02:28;;;;;;;23.33;18.85;;;17.90;99.90;;;;;;5021054;28;20419;-77
2021/07/28 03:04:53;;;;;;;24.35;17.73;;;17.70;99.90;;;;;;5019322;28;20095;-76
2021/07/28 03:07:19;;;;;;;26.33;18.88;;;17.80;99.90;;;;;;5023547;28;20018;-75
2021/07/28 03:09:45;;;;;;;23.27;17.67;;;17.70;99.90;;;;;;5026396;28;20025;-76
2021/07/28 03:12:10;;;;;;;27.15;18.83;;;17.70;99.90;;;;;;5021278;28;20048;-76
2021/07/28 03:14:36;;;;;;;21.85;17.38;;;17.80;99.90;;;;;;5019224;28;20480;-76
2021/07/28 03:17:01;;;;;;;26.23;18.10;;;17.90;99.90;;;;;;5024675;28;20361;-76
2021/07/28 03:19:27;;;;;;;24.25;18.27;;;17.80;99.90;;;;;;5026162;28;20030;-76
2021/07/28 03:21:52;;;;;;;27.00;19.52;;;17.80;99.90;;;;;;5024678;28;20022;-77
2021/07/28 03:24:18;;;;;;;23.50;18.45;;;17.90;99.90;;;;;;5026184;28;20030;-76
2021/07/28 03:26:45;;;;;;;25.55;18.90;;;17.90;99.90;;;;;;5012706;28;20026;-77
2021/07/28 03:29:11;;;;;;;22.65;18.10;;;18.00;99.90;;;;;;5014014;28;20050;-76
2021/07/28 03:31:37;;;;;;;24.83;19.27;;;18.00;99.90;;;;;;5024655;28;20068;-76
2021/07/28 03:34:02;;;;;;;23.83;18.50;;;17.90;99.90;;;;;;5025849;28;20026;-76
2021/07/28 03:36:27;;;;;;;27.00;19.38;;;17.90;99.90;;;;;;5021053;28;20031;-76
2021/07/28 03:38:53;;;;;;;26.05;19.48;;;18.00;99.90;;;;;;5018267;28;20084;-76
2021/07/28 03:41:18;;;;;;;25.98;19.35;;;17.90;99.90;;;;;;5024608;28;20034;-76
2021/07/28 03:43:44;;;;;;;26.92;18.83;;;17.90;99.90;;;;;;5025878;28;20125;-76
2021/07/28 03:46:09;;;;;;;26.02;19.77;;;17.90;99.90;;;;;;5020257;28;20436;-76
2021/07/28 03:48:35;;;;;;;25.80;19.38;;;17.90;99.90;;;;;;5018722;28;20034;-76
2021/07/28 03:51:01;;;;;;;24.00;17.45;;;17.80;99.90;;;;;;5010096;28;20408;-76
2021/07/28 03:53:26;;;;;;;25.83;18.27;;;17.80;99.90;;;;;;5020688;28;20087;-75
2021/07/28 03:55:52;;;;;;;20.23;16.80;;;17.90;99.90;;;;;;5020812;28;20100;-76
2021/07/28 03:58:19;;;;;;;21.20;16.30;;;18.00;99.90;;;;;;5019090;28;20034;-75
2021/07/28 04:00:44;;;;;;;23.98;18.20;;;18.20;99.90;;;;;;5022786;28;20447;-76
2021/07/28 04:03:10;;;;;;;24.52;17.85;;;18.10;99.90;;;;;;5012406;28;20033;-75
2021/07/28 04:05:35;;;;;;;28.90;20.67;;;17.80;99.90;;;;;;5020292;28;20025;-75
2021/07/28 04:08:02;;;;;;;27.88;19.75;;;17.80;99.90;;;;;;5031954;28;20406;-75
2021/07/28 04:10:27;;;;;;;24.08;19.35;;;17.70;99.90;;;;;;5024065;28;20022;-75
2021/07/28 04:12:53;;;;;;;24.48;19.60;;;17.90;99.90;;;;;;5025491;28;20095;-75
2021/07/28 04:15:19;;;;;;;24.27;18.23;;;17.80;99.90;;;;;;5020099;28;20430;-75
2021/07/28 04:17:44;;;;;;;27.50;20.60;;;17.70;99.90;;;;;;5018645;28;20034;-75
2021/07/28 04:20:10;;;;;;;24.95;19.80;;;17.70;99.90;;;;;;5023742;28;20076;-75
2021/07/28 04:22:36;;;;;;;28.52;20.77;;;17.60;99.90;;;;;;5025286;28;20030;-75
2021/07/28 04:25:04;;;;;;;28.58;21.58;;;17.50;99.90;;;;;;5019898;28;20029;-75
2021/07/28 04:27:31;;;;;;;26.05;20.55;;;17.50;99.90;;;;;;5018496;28;20476;-75
2021/07/28 04:29:56;;;;;;;28.55;21.65;;;17.60;99.90;;;;;;5023568;28;20036;-75
2021/07/28 04:32:22;;;;;;;27.55;20.67;;;17.50;99.90;;;;;;5026813;28;20479;-75
2021/07/28 04:34:48;;;;;;;28.15;20.80;;;17.60;99.90;;;;;;5024084;28;20022;-75
2021/07/28 04:37:13;;;;;;;32.30;22.20;;;17.60;99.90;;;;;;5022567;28;20044;-75
2021/07/28 04:39:39;;;;;;;31.50;22.40;;;17.50;99.90;;;;;;5027719;28;20021;-75
2021/07/28 04:42:04;;;;;;;30.02;22.35;;;17.30;99.90;;;;;;5027894;28;20018;-75
2021/07/28 04:44:30;;;;;;;29.67;21.73;;;17.40;99.90;;;;;;5023918;28;20017;-75
2021/07/28 04:46:56;;;;;;;31.65;23.33;;;17.40;99.90;;;;;;5032864;28;20476;-75
2021/07/28 04:49:22;;;;;;;30.75;22.35;;;17.50;99.90;;;;;;5021806;28;20479;-75
2021/07/28 04:51:48;;;;;;;31.90;22.88;;;17.50;99.90;;;;;;5015834;28;20105;-75
2021/07/28 04:54:14;;;;;;;29.73;21.52;;;17.60;99.90;;;;;;5026158;28;20460;-75
2021/07/28 04:56:39;;;;;;;28.05;20.17;;;17.70;99.90;;;;;;5028634;28;20022;-75
2021/07/28 04:59:05;;;;;;;27.00;20.33;;;17.70;99.90;;;;;;5022124;28;20025;-74
2021/07/28 05:01:30;;;;;;;26.55;21.10;;;17.70;99.90;;;;;;5021071;28;20022;-75
2021/07/28 05:03:56;;;;;;;26.25;20.60;;;17.70;99.90;;;;;;5014339;28;20030;-75
2021/07/28 05:06:21;;;;;;;26.90;19.73;;;17.70;99.90;;;;;;5028482;28;20025;-75
2021/07/28 05:08:47;;;;;;;29.67;21.60;;;17.80;99.90;;;;;;5022411;28;20030;-75
2021/07/28 05:11:12;;;;;;;24.55;19.02;;;17.70;99.90;;;;;;5021791;28;20038;-78
2021/07/28 05:13:38;;;;;;;27.30;20.33;;;17.80;99.90;;;;;;5028469;28;20080;-75
2021/07/28 05:16:04;;;;;;;26.20;19.83;;;17.80;99.90;;;;;;5028238;28;20501;-75
2021/07/28 05:18:29;;;;;;;24.33;18.83;;;17.80;99.90;;;;;;5028807;28;20022;-76
2021/07/28 05:20:56;;;;;;;24.83;18.23;;;17.90;99.90;;;;;;5028154;28;20107;-75
2021/07/28 05:23:22;;;;;;;21.55;17.17;;;17.90;99.90;;;;;;5020453;28;20021;-75
2021/07/28 05:25:47;;;;;;;23.17;17.95;;;18.00;99.90;;;;;;5021886;28;20092;-75
2021/07/28 05:28:13;;;;;;;21.02;16.42;;;18.10;99.90;;;;;;5027323;28;20038;-75
2021/07/28 05:30:38;;;;;;;19.65;16.27;;;18.10;99.90;;;;;;5027747;28;20030;-75
2021/07/28 05:33:04;;;;;;;17.98;15.18;;;18.00;99.90;;;;;;5015360;28;20049;-75
2021/07/28 05:35:30;;;;;;;20.67;15.70;;;18.20;99.90;;;;;;5014897;28;20033;-75
2021/07/28 05:37:59;;;;;;;18.38;14.02;;;18.10;99.90;;;;;;5027999;28;20030;-75
2021/07/28 05:40:25;;;;;;;17.40;13.77;;;18.10;99.90;;;;;;5027990;28;20382;-75
2021/07/28 05:42:51;;;;;;;19.98;14.40;;;18.00;99.90;;;;;;5013681;28;20027;-75
2021/07/28 05:45:16;;;;;;;17.58;14.18;;;18.00;99.90;;;;;;5014652;28;20069;-75
2021/07/28 05:47:44;;;;;;;19.50;13.95;;;17.90;99.90;;;;;;5020798;28;20025;-74
2021/07/28 05:50:11;;;;;;;18.42;14.52;;;18.10;99.90;;;;;;5021331;28;20064;-75
2021/07/28 05:52:37;;;;;;;18.20;14.77;;;18.00;99.90;;;;;;5014621;28;20084;-75
2021/07/28 05:55:02;;;;;;;17.75;14.43;;;18.10;99.90;;;;;;5014131;28;20495;-75
2021/07/28 05:57:28;;;;;;;15.27;13.10;;;18.10;99.90;;;;;;5049930;28;20033;-77
2021/07/28 05:59:53;;;;;;;18.77;14.57;;;18.10;99.90;;;;;;5020735;28;20416;-75
2021/07/28 06:02:19;;;;;;;18.00;13.45;;;18.10;99.90;;;;;;5027269;28;20068;-75
2021/07/28 06:04:44;;;;;;;14.65;13.10;;;18.50;99.90;;;;;;5028201;28;20035;-74
2021/07/28 06:07:10;;;;;;;16.55;12.25;;;18.70;99.90;;;;;;5017366;28;20033;-74
2021/07/28 06:09:36;;;;;;;15.80;12.73;;;19.10;99.90;;;;;;5029629;28;20032;-74
2021/07/28 06:12:02;;;;;;;13.55;12.13;;;18.70;99.90;;;;;;5023574;28;20416;-75
2021/07/28 06:14:27;;;;;;;13.93;12.35;;;18.80;99.90;;;;;;5023132;28;20480;-74
2021/07/28 06:16:54;;;;;;;15.85;10.65;;;18.80;99.90;;;;;;5017008;28;20026;-75
2021/07/28 06:19:19;;;;;;;16.02;11.18;;;18.80;99.90;;;;;;5026721;28;20059;-75
2021/07/28 06:21:45;;;;;;;13.75;11.00;;;18.70;99.90;;;;;;5021221;28;20441;-75
2021/07/28 06:24:10;;;;;;;11.07;9.38;;;18.90;99.90;;;;;;5020989;28;20034;-74
2021/07/28 06:26:36;;;;;;;9.57;8.57;;;18.70;99.90;;;;;;5020865;28;20022;-74
2021/07/28 06:29:01;;;;;;;9.43;8.45;;;18.70;99.90;;;;;;5021614;28;20076;-74
2021/07/28 06:31:27;;;;;;;9.82;8.35;;;18.70;99.90;;;;;;5028281;28;20109;-74
2021/07/28 06:33:52;;;;;;;8.65;7.70;;;18.80;99.90;;;;;;5025960;28;20064;-74
2021/07/28 06:36:18;;;;;;;9.50;7.80;;;18.80;99.90;;;;;;5015483;28;20029;-74
2021/07/28 06:38:43;;;;;;;10.35;8.45;;;19.00;99.90;;;;;;5015128;28;20042;-74
2021/07/28 06:41:09;;;;;;;9.70;8.40;;;19.20;99.90;;;;;;5015360;28;20037;-75
2021/07/28 06:43:34;;;;;;;11.07;8.77;;;19.10;99.90;;;;;;5015748;28;20476;-74
2021/07/28 06:46:01;;;;;;;10.13;8.43;;;19.10;99.90;;;;;;5019174;28;20033;-74
2021/07/28 06:48:27;;;;;;;11.60;8.07;;;19.10;99.90;;;;;;5021165;28;20034;-75
2021/07/28 06:50:53;;;;;;;9.77;8.35;;;19.20;99.90;;;;;;5006346;28;20092;-75
2021/07/28 06:53:19;;;;;;;9.75;7.68;;;19.10;99.90;;;;;;5007293;28;20108;-74
2021/07/28 06:55:45;;;;;;;11.60;7.85;;;19.00;99.90;;;;;;5012648;28;20025;-75
2021/07/28 06:58:10;;;;;;;9.63;8.10;;;19.10;99.90;;;;;;5013421;28;20029;-74
2021/07/28 07:00:36;;;;;;;10.35;8.27;;;19.10;99.90;;;;;;5020377;28;20025;-75
2021/07/28 07:03:01;;;;;;;10.98;8.68;;;19.10;99.90;;;;;;5020350;28;20682;-75
2021/07/28 07:05:27;;;;;;;11.32;7.72;;;19.20;99.90;;;;;;5025082;28;20066;-75
2021/07/28 07:07:54;;;;;;;8.40;7.22;;;19.10;99.90;;;;;;5026725;28;20036;-75
2021/07/28 07:10:20;;;;;;;8.93;7.50;;;19.10;99.90;;;;;;5006897;28;20044;-75
2021/07/28 07:12:46;;;;;;;8.30;6.82;;;19.20;99.90;;;;;;5019666;28;20028;-75
2021/07/28 07:15:12;;;;;;;8.48;6.55;;;19.50;99.90;;;;;;5019836;28;20057;-75
2021/07/28 07:17:37;;;;;;;10.80;7.60;;;19.50;99.90;;;;;;5018224;28;20049;-74
2021/07/28 07:20:04;;;;;;;7.82;6.47;;;19.40;99.90;;;;;;5013055;28;20489;-74
2021/07/28 07:22:29;;;;;;;7.72;6.90;;;19.30;99.90;;;;;;5011842;28;20026;-75
2021/07/28 07:24:55;;;;;;;8.82;7.32;;;19.00;99.90;;;;;;5026159;28;20041;-75
2021/07/28 07:27:20;;;;;;;8.55;7.70;;;19.10;99.90;;;;;;5025585;28;20029;-75
2021/07/28 07:29:48;;;;;;;8.70;7.80;;;19.10;99.90;;;;;;5019203;28;20108;-74
2021/07/28 07:32:18;;;;;;;7.68;6.85;;;19.30;99.90;;;;;;5020009;28;20591;-74
2021/07/28 07:34:44;;;;;;;9.40;7.00;;;19.40;99.90;;;;;;5032345;28;20104;-75
2021/07/28 07:37:09;;;;;;;8.60;7.47;;;19.40;99.90;;;;;;5019511;28;20024;-75
2021/07/28 07:39:35;;;;;;;7.63;6.88;;;19.40;99.90;;;;;;5026074;28;20025;-74
2021/07/28 07:42:00;;;;;;;8.05;6.55;;;19.50;99.90;;;;;;5025828;28;20097;-75
2021/07/28 07:44:26;;;;;;;9.70;6.53;;;19.40;99.90;;;;;;5019134;28;20021;-75
2021/07/28 07:46:52;;;;;;;8.38;6.65;;;19.50;99.90;;;;;;5019381;28;20488;-75
2021/07/28 07:49:17;;;;;;;8.80;7.22;;;19.60;99.90;;;;;;5025472;28;20068;-74
2021/07/28 07:51:43;;;;;;;8.60;6.95;;;19.90;99.90;;;;;;5011406;28;20049;-75
2021/07/28 07:54:08;;;;;;;7.18;6.47;;;19.80;99.90;;;;;;5019364;28;20041;-75
2021/07/28 07:56:34;;;;;;;8.55;6.53;;;20.00;99.90;;;;;;5018766;28;20037;-74
2021/07/28 07:58:59;;;;;;;7.20;6.43;;;20.10;99.90;;;;;;5025370;28;20022;-75
2021/07/28 08:01:25;;;;;;;8.23;6.85;;;20.00;99.90;;;;;;5024289;28;20026;-74
2021/07/28 08:03:50;;;;;;;8.80;6.82;;;20.10;99.90;;;;;;5019224;28;20029;-75
2021/07/28 08:06:16;;;;;;;7.50;6.38;;;20.00;99.90;;;;;;5016792;28;20068;-75
2021/07/28 08:08:41;;;;;;;7.13;5.93;;;19.90;99.90;;;;;;5024222;28;20100;-75
2021/07/28 08:11:11;;;;;;;7.40;6.55;;;19.80;99.90;;;;;;5025564;28;20376;-75
2021/07/28 08:13:37;;;;;;;9.52;6.35;;;20.00;99.90;;;;;;4992787;28;20026;-74
2021/07/28 08:16:09;;;;;;;7.20;5.88;;;20.00;99.90;;;;;;5004324;28;20033;-75
2021/07/28 08:18:35;;;;;;;8.25;6.15;;;20.20;99.90;;;;;;5010845;28;20030;-75
2021/07/28 08:21:01;;;;;;;8.63;6.00;;;20.30;99.90;;;;;;5025486;28;20032;-75
2021/07/28 08:23:27;;;;;;;7.60;6.03;;;20.50;99.90;;;;;;5018657;28;20029;-75
2021/07/28 08:25:52;;;;;;;7.95;6.43;;;20.30;99.90;;;;;;5017520;28;20481;-74
2021/07/28 08:28:18;;;;;;;6.53;5.93;;;20.20;99.90;;;;;;5012131;28;20076;-75
2021/07/28 08:30:43;;;;;;;7.07;5.47;;;20.30;99.90;;;;;;5025004;28;20388;-74
2021/07/28 08:33:09;;;;;;;8.68;5.40;;;20.40;99.90;;;;;;5019497;28;20075;-74
2021/07/28 08:35:34;;;;;;;7.57;6.30;;;20.40;99.90;;;;;;5017452;28;20516;-75
2021/07/28 08:38:00;;;;;;;7.10;5.95;;;20.50;99.90;;;;;;5012084;28;20102;-75
2021/07/28 08:40:25;;;;;;;7.43;5.80;;;20.50;99.90;;;;;;5025153;28;20032;-74
2021/07/28 08:42:54;;;;;;;8.57;5.70;;;20.20;99.90;;;;;;5012064;28;20034;-75
2021/07/28 08:45:20;;;;;;;6.65;5.40;;;20.20;99.90;;;;;;5025201;28;20029;-75
2021/07/28 08:47:46;;;;;;;6.95;5.60;;;20.10;99.90;;;;;;5023787;28;20040;-75
2021/07/28 08:50:13;;;;;;;6.25;5.63;;;20.20;99.90;;;;;;5018938;28;20038;-75
2021/07/28 08:52:40;;;;;;;9.05;5.63;;;20.40;99.90;;;;;;5020155;28;20026;-75
2021/07/28 08:55:07;;;;;;;6.28;5.50;;;20.70;99.90;;;;;;5016496;28;20022;-75
2021/07/28 08:57:33;;;;;;;9.88;5.88;;;20.90;99.90;;;;;;5010625;28;20026;-75
2021/07/28 09:00:00;;;;;;;6.40;5.60;;;20.80;99.90;;;;;;5027207;28;20030;-75
2021/07/28 09:02:26;;;;;;;8.52;5.63;;;20.40;99.90;;;;;;5022750;28;20033;-75
2021/07/28 09:04:52;;;;;;;6.55;5.72;;;20.40;99.90;;;;;;5024782;28;20091;-75
2021/07/28 09:07:22;;;;;;;7.35;5.95;;;20.40;99.90;;;;;;5020729;28;20103;-75
2021/07/28 09:09:57;;;;;;;8.50;5.85;;;20.10;99.90;;;;;;5015519;28;20167;-75
2021/07/28 09:12:35;;;;;;;8.02;6.40;;;20.00;99.90;;;;;;5010483;28;20111;-75
2021/07/28 09:15:06;;;;;;;6.60;5.63;;;20.20;99.90;;;;;;5024635;28;20018;-75
2021/07/28 09:17:35;;;;;;;6.00;5.40;;;20.10;99.90;;;;;;5011942;28;20018;-75
2021/07/28 09:20:02;;;;;;;7.53;5.57;;;20.20;99.90;;;;;;5027974;28;20018;-75
2021/07/28 09:22:42;;;;;;;9.63;6.75;;;20.20;99.90;;;;;;5015470;28;20168;-75
2021/07/28 09:25:33;;;;;;;8.13;6.18;;;20.10;99.90;;;;;;5024434;28;20026;-75
2021/07/28 09:27:59;;;;;;;7.97;5.30;;;20.30;99.90;;;;;;5021729;28;20037;-75
2021/07/28 09:30:24;;;;;;;7.30;5.40;;;20.40;99.90;;;;;;5022230;28;20400;-75
2021/07/28 09:32:57;;;;;;;10.68;6.57;;;20.30;99.90;;;;;;5028076;28;20029;-75
2021/07/28 09:35:47;;;;;;;7.60;4.88;;;20.20;99.90;;;;;;5027624;28;20021;-75
2021/07/28 09:38:37;;;;;;;6.43;5.30;;;20.20;99.90;;;;;;5024782;28;20025;-75
2021/07/28 09:41:23;;;;;;;6.13;4.55;;;20.10;99.90;;;;;;4996068;28;20018;-75
2021/07/28 09:43:51;;;;;;;6.75;4.93;;;20.00;99.90;;;;;;5011789;28;20036;-74
2021/07/28 09:46:33;;;;;;;7.80;5.30;;;20.00;99.90;;;;;;5023821;28;20128;-75
2021/07/28 09:49:02;;;;;;;6.72;5.15;;;19.90;99.90;;;;;;5019856;28;20026;-75
2021/07/28 09:51:33;;;;;;;7.40;5.90;;;20.10;99.90;;;;;;5021043;28;20026;-75
2021/07/28 09:54:03;;;;;;;7.45;5.07;;;20.20;99.90;;;;;;5014933;28;20068;-75
2021/07/28 09:56:34;;;;;;;7.72;5.30;;;20.00;99.90;;;;;;5028099;28;20026;-73
2021/07/28 09:58:59;;;;;;;9.63;6.63;;;20.20;99.90;;;;;;5008793;28;20036;-74
2021/07/28 10:01:27;;;;;;;7.15;5.63;;;20.30;99.90;;;;;;5021106;28;20026;-74
2021/07/28 10:03:54;;;;;;;6.45;5.05;;;20.20;99.90;;;;;;5034328;28;20026;-75
2021/07/28 10:06:22;;;;;;;6.50;5.38;;;20.20;99.90;;;;;;5019964;28;20025;-74
2021/07/28 10:08:51;;;;;;;6.60;5.32;;;20.20;99.90;;;;;;5013358;28;20037;-74
2021/07/28 10:11:19;;;;;;;5.97;5.13;;;20.20;99.90;;;;;;5015214;28;20030;-74
2021/07/28 10:13:44;;;;;;;5.72;4.80;;;20.30;99.90;;;;;;5025481;28;20033;-74
2021/07/28 10:16:10;;;;;;;6.53;5.50;;;20.20;99.90;;;;;;5013906;28;20518;-74
2021/07/28 10:18:37;;;;;;;5.82;4.80;;;20.20;99.90;;;;;;5012889;28;20014;-74
2021/07/28 10:21:02;;;;;;;6.78;5.97;;;20.40;99.90;;;;;;5014019;28;20022;-74
2021/07/28 10:23:30;;;;;;;7.25;5.80;;;20.40;99.90;;;;;;5014083;28;20391;-74
2021/07/28 10:25:56;;;;;;;6.57;5.35;;;20.30;99.90;;;;;;5029518;28;20104;-74
2021/07/28 10:28:21;;;;;;;7.45;5.68;;;20.20;99.90;;;;;;5023679;28;20065;-74
2021/07/28 10:31:10;;;;;;;7.10;6.07;;;20.20;99.90;;;;;;5012892;28;20061;-74
2021/07/28 10:33:51;;;;;;;7.22;5.60;;;20.30;99.90;;;;;;5025896;28;20033;-74
2021/07/28 10:36:21;;;;;;;7.13;5.70;;;20.40;99.90;;;;;;5007824;28;20025;-74
2021/07/28 10:38:56;;;;;;;7.15;6.07;;;20.50;99.90;;;;;;5018195;28;20029;-74
2021/07/28 10:41:41;;;;;;;6.68;5.22;;;20.60;99.90;;;;;;5022655;28;20071;-74
2021/07/28 10:44:13;;;;;;;7.30;6.18;;;20.70;99.90;;;;;;5019078;28;20033;-74
2021/07/28 10:47:05;;;;;;;6.90;6.18;;;20.80;99.90;;;;;;5020547;28;20484;-74
2021/07/28 10:49:37;;;;;;;6.82;5.90;;;20.70;99.90;;;;;;5004000;28;20076;-74
2021/07/28 10:52:09;;;;;;;6.75;5.30;;;20.90;99.90;;;;;;5016429;28;20022;-74
2021/07/28 10:54:51;;;;;;;6.47;5.38;;;20.90;99.90;;;;;;5022769;28;20476;-74
2021/07/28 10:57:35;;;;;;;6.70;5.55;;;20.80;99.90;;;;;;5013862;28;20113;-74
2021/07/28 11:00:06;;;;;;;6.93;5.40;;;21.00;99.90;;;;;;5015449;28;20018;-74
2021/07/28 11:02:56;;;;;;;7.63;6.20;;;21.00;99.90;;;;;;5031918;28;20034;-74
2021/07/28 11:05:24;;;;;;;6.32;5.72;;;20.90;99.90;;;;;;5027010;28;20156;-74
2021/07/28 11:07:58;;;;;;;7.07;6.07;;;21.10;99.90;;;;;;5026023;28;20084;-74
2021/07/28 11:10:25;;;;;;;7.25;5.90;;;21.00;99.90;;;;;;5025900;28;20033;-74
2021/07/28 11:12:52;;;;;;;7.32;5.70;;;21.30;99.90;;;;;;5011951;28;20030;-74
2021/07/28 11:15:17;;;;;;;7.57;5.10;;;21.20;99.90;;;;;;5019721;28;20049;-74
2021/07/28 11:17:43;;;;;;;7.57;5.72;;;21.00;99.90;;;;;;5026073;28;20408;-74
2021/07/28 11:20:10;;;;;;;5.68;5.07;;;21.00;99.90;;;;;;5017980;28;20036;-74
2021/07/28 11:22:36;;;;;;;7.50;5.72;;;20.90;99.90;;;;;;5012286;28;20029;-74
2021/07/28 11:25:01;;;;;;;8.10;5.63;;;21.10;99.90;;;;;;5019483;28;20026;-74
2021/07/28 11:27:27;;;;;;;7.38;5.95;;;21.60;99.90;;;;;;5012190;28;20392;-74
2021/07/28 11:30:12;;;;;;;8.05;5.80;;;21.30;99.90;;;;;;5012209;28;20574;-74
2021/07/28 11:32:39;;;;;;;8.65;6.20;;;21.10;99.90;;;;;;5014424;28;20021;-74
2021/07/28 11:35:06;;;;;;;8.15;5.63;;;21.20;99.90;;;;;;5022430;28;20022;-74
2021/07/28 11:37:32;;;;;;;8.18;6.15;;;21.20;99.90;;;;;;5019017;28;20056;-74
2021/07/28 11:39:59;;;;;;;7.40;5.78;;;21.00;99.90;;;;;;5022099;28;20022;-74
2021/07/28 11:42:28;;;;;;;6.13;5.47;;;21.10;99.90;;;;;;5017029;28;20014;-74
2021/07/28 11:44:53;;;;;;;8.45;5.65;;;21.30;99.90;;;;;;5022732;28;20017;-74
2021/07/28 11:47:23;;;;;;;7.22;5.15;;;21.20;99.90;;;;;;5014174;28;20109;-74
2021/07/28 11:50:05;;;;;;;8.77;5.38;;;21.70;99.90;;;;;;5018792;28;20034;-74
2021/07/28 11:52:34;;;;;;;9.88;5.57;;;22.10;99.90;;;;;;5004825;28;20033;-74
2021/07/28 11:54:59;;;;;;;8.40;5.60;;;21.90;99.90;;;;;;5013171;28;20052;-74
2021/07/28 11:57:25;;;;;;;6.47;5.00;;;21.80;99.90;;;;;;5021723;28;20428;-74
2021/07/28 11:59:50;;;;;;;7.43;5.68;;;21.80;99.90;;;;;;5026082;28;20436;-74
2021/07/28 12:02:20;;;;;;;6.28;5.07;;;21.50;99.90;;;;;;5030849;28;20055;-74
2021/07/28 12:04:48;;;;;;;8.30;5.90;;;21.60;99.90;;;;;;5018572;28;20463;-74
2021/07/28 12:07:15;;;;;;;8.13;6.07;;;22.10;99.90;;;;;;5024080;28;20036;-74
2021/07/28 12:09:42;;;;;;;9.25;5.55;;;22.20;99.90;;;;;;5010938;28;20088;-74
2021/07/28 12:12:23;;;;;;;8.45;6.00;;;22.20;99.90;;;;;;5020668;28;20022;-74
2021/07/28 12:14:50;;;;;;;7.25;5.65;;;21.90;99.90;;;;;;5014547;28;20022;-74
2021/07/28 12:17:20;;;;;;;6.55;5.75;;;22.10;99.90;;;;;;5022717;28;20182;-74
2021/07/28 12:20:04;;;;;;;7.10;5.63;;;21.90;99.90;;;;;;5012740;28;20526;-74
2021/07/28 12:22:35;;;;;;;7.00;6.00;;;22.00;99.90;;;;;;5012152;28;20053;-74
2021/07/28 12:25:22;;;;;;;7.45;5.65;;;21.80;99.90;;;;;;5018387;28;20036;-74
2021/07/28 12:27:59;;;;;;;6.57;5.85;;;21.70;99.90;;;;;;5014400;28;20362;-75
2021/07/28 12:30:27;;;;;;;7.75;5.88;;;21.80;99.90;;;;;;5022667;28;20083;-74
2021/07/28 12:33:12;;;;;;;6.60;5.90;;;21.90;99.90;;;;;;5018430;28;20043;-74
2021/07/28 12:36:07;;;;;;;6.90;5.38;;;22.00;99.90;;;;;;5016889;28;20105;-74
2021/07/28 12:38:32;;;;;;;6.90;5.50;;;21.70;99.90;;;;;;5006596;28;20036;-74
2021/07/28 12:41:03;;;;;;;7.88;6.47;;;21.80;99.90;;;;;;5017172;28;20092;-74
2021/07/28 12:43:36;;;;;;;7.20;6.03;;;21.90;99.90;;;;;;5019105;28;20036;-74